createdAt,value
2019-02-27T00:02:17.651Z,2.67
2019-02-27T00:04:44.515Z,2.70
2019-02-27T00:07:11.575Z,3.30
2019-02-27T00:09:38.592Z,2.93
2019-02-27T00:12:05.747Z,2.77
2019-02-27T00:14:32.643Z,2.93
2019-02-27T00:16:59.592Z,2.77
2019-02-27T00:19:26.341Z,2.80
2019-02-27T00:21:53.083Z,2.37
2019-02-27T00:24:20.123Z,2.73
2019-02-27T00:26:46.955Z,2.70
2019-02-27T00:29:13.815Z,2.30
2019-02-27T00:31:45.220Z,2.77
2019-02-27T00:34:09.551Z,2.40
2019-02-27T00:36:36.363Z,2.27
2019-02-27T00:39:04.656Z,2.13
2019-02-27T00:41:31.563Z,2.53
2019-02-27T00:44:01.159Z,3.20
2019-02-27T00:46:27.284Z,2.63
2019-02-27T00:48:54.083Z,2.23
2019-02-27T00:51:21.327Z,2.60
2019-02-27T00:53:48.157Z,2.37
2019-02-27T00:56:15.048Z,2.00
2019-02-27T00:58:41.800Z,2.10
2019-02-27T01:01:10.078Z,2.17
2019-02-27T01:03:37.318Z,2.20
2019-02-27T01:06:04.296Z,2.10
2019-02-27T01:08:31.171Z,2.23
2019-02-27T01:10:57.979Z,2.13
2019-02-27T01:13:24.762Z,1.80
2019-02-27T01:15:51.735Z,2.17
2019-02-27T01:18:18.711Z,2.23
2019-02-27T01:20:46.484Z,2.40
2019-02-27T01:23:13.447Z,2.07
2019-02-27T01:25:40.319Z,2.00
2019-02-27T01:28:10.814Z,2.67
2019-02-27T01:30:36.135Z,1.80
2019-02-27T01:33:04.195Z,2.13
2019-02-27T01:35:31.975Z,2.03
2019-02-27T01:37:58.807Z,2.37
2019-02-27T01:40:25.655Z,2.20
2019-02-27T01:42:52.419Z,1.87
2019-02-27T01:45:21.100Z,2.20
2019-02-27T01:47:48.204Z,2.00
2019-02-27T01:50:26.857Z,2.07
2019-02-27T01:52:53.771Z,2.37
2019-02-27T01:55:22.396Z,2.40
2019-02-27T01:57:49.623Z,2.47
2019-02-27T02:00:16.663Z,2.70
2019-02-27T02:02:43.675Z,2.40
2019-02-27T02:05:10.619Z,2.97
2019-02-27T02:07:39.897Z,2.93
2019-02-27T02:10:06.904Z,2.43
2019-02-27T02:12:33.766Z,2.70
2019-02-27T02:15:38.708Z,2.40
2019-02-27T02:18:49.510Z,2.87
2019-02-27T02:21:22.697Z,2.63
2019-02-27T02:24:01.707Z,2.97
2019-02-27T02:27:07.985Z,2.17
2019-02-27T02:30:17.373Z,2.30
2019-02-27T02:33:07.287Z,2.33
2019-02-27T02:36:03.912Z,2.97
2019-02-27T02:39:00.363Z,2.90
2019-02-27T02:41:57.910Z,2.47
2019-02-27T02:45:03.109Z,3.23
2019-02-27T02:47:58.373Z,2.63
2019-02-27T02:50:55.335Z,3.10
2019-02-27T02:53:50.475Z,2.83
2019-02-27T02:56:41.520Z,3.83
2019-02-27T02:59:45.133Z,3.30
2019-02-27T03:02:36.132Z,3.63
2019-02-27T03:05:48.379Z,3.13
2019-02-27T03:08:29.875Z,2.87
2019-02-27T03:11:27.335Z,3.67
2019-02-27T03:14:25.078Z,3.23
2019-02-27T03:17:27.677Z,3.77
2019-02-27T03:21:01.124Z,3.80
2019-02-27T03:23:52.077Z,3.77
2019-02-27T03:26:51.605Z,4.60
2019-02-27T03:30:10.724Z,4.57
2019-02-27T03:33:24.422Z,4.00
2019-02-27T03:36:27.563Z,4.50
2019-02-27T03:39:08.560Z,4.37
2019-02-27T03:41:59.670Z,3.67
2019-02-27T03:44:55.829Z,3.80
2019-02-27T03:47:34.564Z,3.20
2019-02-27T03:50:23.228Z,3.50
2019-02-27T03:52:59.219Z,3.33
2019-02-27T03:56:26.484Z,3.80
2019-02-27T03:59:16.576Z,4.00
2019-02-27T04:02:17.104Z,3.87
2019-02-27T04:05:21.886Z,4.70
2019-02-27T04:08:16.911Z,6.27
2019-02-27T04:10:43.778Z,5.57
2019-02-27T04:13:10.551Z,5.50
2019-02-27T04:15:37.460Z,4.80
2019-02-27T04:18:03.581Z,4.13
2019-02-27T04:20:31.205Z,4.30
2019-02-27T04:22:58.060Z,4.60
2019-02-27T04:25:24.927Z,4.13
2019-02-27T04:27:55.242Z,4.27
2019-02-27T04:30:20.295Z,4.70
2019-02-27T04:32:48.743Z,5.00
2019-02-27T04:35:15.928Z,3.93
2019-02-27T04:37:42.755Z,4.20
2019-02-27T04:40:11.193Z,3.93
2019-02-27T04:42:38.587Z,4.03
2019-02-27T04:45:06.048Z,4.30
2019-02-27T04:47:33.050Z,4.23
2019-02-27T04:49:59.975Z,4.93
2019-02-27T04:52:27.043Z,4.73
2019-02-27T04:54:54.092Z,4.53
2019-02-27T04:57:20.979Z,4.33
2019-02-27T04:59:49.737Z,5.00
2019-02-27T05:02:16.563Z,4.50
2019-02-27T05:04:43.508Z,4.80
2019-02-27T05:07:10.387Z,6.00
2019-02-27T05:09:37.176Z,4.83
2019-02-27T05:12:04.199Z,4.83
2019-02-27T05:14:31.081Z,4.80
2019-02-27T05:16:59.594Z,4.67
2019-02-27T05:19:27.171Z,4.37
2019-02-27T05:21:54.097Z,4.70
2019-02-27T05:24:20.906Z,3.87
2019-02-27T05:26:47.830Z,5.03
2019-02-27T05:29:15.852Z,4.83
2019-02-27T05:31:42.794Z,5.40
2019-02-27T05:34:12.422Z,4.80
2019-02-27T05:36:38.453Z,4.30
2019-02-27T05:39:06.151Z,4.73
2019-02-27T05:41:33.777Z,4.60
2019-02-27T05:44:00.965Z,4.83
2019-02-27T05:46:27.952Z,4.47
2019-02-27T05:48:55.175Z,4.90
2019-02-27T05:51:22.152Z,4.33
2019-02-27T05:53:48.910Z,4.00
2019-02-27T05:56:16.399Z,4.53
2019-02-27T05:58:43.351Z,4.80
2019-02-27T06:01:10.191Z,4.83
2019-02-27T06:03:37.260Z,5.10
2019-02-27T06:06:04.007Z,6.12
2019-02-27T06:08:35.148Z,6.05
2019-02-27T06:10:59.576Z,5.20
2019-02-27T06:13:26.457Z,5.90
2019-02-27T06:15:53.447Z,5.07
2019-02-27T06:18:23.487Z,4.93
2019-02-27T06:20:49.038Z,4.93
2019-02-27T06:23:15.938Z,5.43
2019-02-27T06:25:42.676Z,5.17
2019-02-27T06:28:09.432Z,5.47
2019-02-27T06:30:36.453Z,4.97
2019-02-27T06:33:03.219Z,4.83
2019-02-27T06:35:33.485Z,5.60
2019-02-27T06:37:58.903Z,5.80
2019-02-27T06:40:25.635Z,5.63
2019-02-27T06:42:53.858Z,6.00
2019-02-27T06:45:21.318Z,4.70
2019-02-27T06:47:48.371Z,5.03
2019-02-27T06:50:15.357Z,5.30
2019-02-27T06:52:42.604Z,5.07
2019-02-27T06:55:10.720Z,4.80
2019-02-27T06:57:40.967Z,5.30
2019-02-27T07:00:15.875Z,5.90
2019-02-27T07:02:42.639Z,6.00
2019-02-27T07:05:13.226Z,7.07
2019-02-27T07:07:38.563Z,5.53
2019-02-27T07:10:06.569Z,6.33
2019-02-27T07:12:33.531Z,6.20
2019-02-27T07:15:00.420Z,6.60
2019-02-27T07:17:29.150Z,6.27
2019-02-27T07:19:56.163Z,6.70
2019-02-27T07:22:22.943Z,5.30
2019-02-27T07:24:49.762Z,7.90
2019-02-27T07:27:16.743Z,6.73
2019-02-27T07:29:43.532Z,6.67
2019-02-27T07:32:10.311Z,6.27
2019-02-27T07:34:37.309Z,7.03
2019-02-27T07:37:04.158Z,6.17
2019-02-27T07:39:32.753Z,6.93
2019-02-27T07:41:59.724Z,6.33
2019-02-27T07:44:26.529Z,6.97
2019-02-27T07:46:57.285Z,8.03
2019-02-27T07:49:22.111Z,7.20
2019-02-27T07:51:49.005Z,6.90
2019-02-27T07:54:15.973Z,7.57
2019-02-27T07:56:42.846Z,6.50
2019-02-27T07:59:09.595Z,7.93
2019-02-27T08:01:43.522Z,6.90
2019-02-27T08:04:05.308Z,7.27
2019-02-27T08:06:32.064Z,7.43
2019-02-27T08:08:58.793Z,6.87
2019-02-27T08:11:26.493Z,7.23
2019-02-27T08:13:53.466Z,6.77
2019-02-27T08:16:20.367Z,6.70
2019-02-27T08:18:47.130Z,6.37
2019-02-27T08:21:13.987Z,7.97
2019-02-27T08:23:40.727Z,6.67
2019-02-27T08:26:07.603Z,6.83
2019-02-27T08:28:34.489Z,7.20
2019-02-27T08:31:01.480Z,7.30
2019-02-27T08:33:28.503Z,8.00
2019-02-27T08:35:55.281Z,8.37
2019-02-27T08:38:23.518Z,7.93
2019-02-27T08:40:50.898Z,8.23
2019-02-27T08:43:17.675Z,8.53
2019-02-27T08:45:44.397Z,7.87
2019-02-27T08:48:11.139Z,7.87
2019-02-27T08:50:37.934Z,8.83
2019-02-27T08:53:05.011Z,9.50
2019-02-27T08:55:32.006Z,8.57
2019-02-27T08:57:58.989Z,9.23
2019-02-27T09:00:26.408Z,8.97
2019-02-27T09:02:55.410Z,9.23
2019-02-27T09:05:22.096Z,8.70
2019-02-27T09:07:49.129Z,8.83
2019-02-27T09:10:16.115Z,11.10
2019-02-27T09:12:45.445Z,9.60
2019-02-27T09:15:13.899Z,9.10
2019-02-27T09:17:40.979Z,8.90
2019-02-27T09:20:09.079Z,9.37
2019-02-27T09:22:36.740Z,9.33
2019-02-27T09:25:04.900Z,9.30
2019-02-27T09:27:33.029Z,10.23
2019-02-27T09:30:02.140Z,9.27
2019-02-27T09:32:29.056Z,10.00
2019-02-27T09:34:57.024Z,10.17
2019-02-27T09:37:24.679Z,10.00
2019-02-27T09:39:51.540Z,9.37
2019-02-27T09:42:19.121Z,10.17
2019-02-27T09:44:46.763Z,9.00
2019-02-27T09:47:13.598Z,9.90
2019-02-27T09:49:41.536Z,9.70
2019-02-27T09:52:08.411Z,10.03
2019-02-27T09:54:35.287Z,9.30
2019-02-27T09:57:02.851Z,9.60
2019-02-27T09:59:29.885Z,9.17
2019-02-27T10:01:57.319Z,9.60
2019-02-27T10:04:25.960Z,9.20
2019-02-27T10:06:53.251Z,9.23
2019-02-27T10:09:20.351Z,8.90
2019-02-27T10:11:47.290Z,8.20
2019-02-27T10:14:16.361Z,8.60
2019-02-27T10:16:42.896Z,7.50
2019-02-27T10:19:09.854Z,9.03
2019-02-27T10:21:36.959Z,8.53
2019-02-27T10:24:04.824Z,7.85
2019-02-27T10:26:32.335Z,9.58
2019-02-27T10:28:59.355Z,8.73
2019-02-27T10:31:26.939Z,9.20
2019-02-27T10:33:53.815Z,9.53
2019-02-27T10:36:20.891Z,9.43
2019-02-27T10:38:47.610Z,9.33
2019-02-27T10:41:14.483Z,9.83
2019-02-27T10:43:41.504Z,10.07
2019-02-27T10:46:08.356Z,9.27
2019-02-27T10:48:36.815Z,8.80
2019-02-27T10:51:03.935Z,9.05
2019-02-27T10:53:30.860Z,8.63
2019-02-27T10:55:57.785Z,10.15
2019-02-27T10:58:24.753Z,9.65
2019-02-27T11:00:51.815Z,8.90
2019-02-27T11:03:18.727Z,9.83
2019-02-27T11:05:45.607Z,9.55
2019-02-27T11:08:12.603Z,9.63
2019-02-27T11:10:39.603Z,8.80
2019-02-27T11:13:07.047Z,9.35
2019-02-27T11:15:34.075Z,9.13
2019-02-27T11:18:04.674Z,9.15
2019-02-27T11:20:29.835Z,9.43
2019-02-27T11:22:56.826Z,9.00
2019-02-27T11:25:24.067Z,9.95
2019-02-27T11:27:50.909Z,9.18
2019-02-27T11:30:23.394Z,8.90
2019-02-27T11:32:50.394Z,9.70
2019-02-27T11:35:17.435Z,8.83
2019-02-27T11:37:47.551Z,8.75
2019-02-27T11:40:18.159Z,9.65
2019-02-27T11:42:45.163Z,9.18
2019-02-27T11:45:12.160Z,9.03
2019-02-27T11:47:39.135Z,8.90
2019-02-27T11:50:07.678Z,8.78
2019-02-27T11:52:34.584Z,9.48
2019-02-27T11:55:01.459Z,10.25
2019-02-27T11:57:30.578Z,9.05
2019-02-27T11:59:56.999Z,10.10
2019-02-27T12:02:28.866Z,9.90
2019-02-27T12:04:55.396Z,10.40
2019-02-27T12:07:21.352Z,10.00
2019-02-27T12:09:48.114Z,10.20
2019-02-27T12:12:15.019Z,10.18
2019-02-27T12:14:41.823Z,10.72
2019-02-27T12:17:08.583Z,10.65
2019-02-27T12:19:35.427Z,9.65
2019-02-27T12:22:02.245Z,9.95
2019-02-27T12:24:29.192Z,11.28
2019-02-27T12:26:55.991Z,9.73
2019-02-27T12:29:24.139Z,10.80
2019-02-27T12:31:51.763Z,10.53
2019-02-27T12:34:18.859Z,9.55
2019-02-27T12:36:45.860Z,10.93
2019-02-27T12:39:15.212Z,10.60
2019-02-27T12:41:41.272Z,9.95
2019-02-27T12:44:08.103Z,10.93
2019-02-27T12:46:36.930Z,10.48
2019-02-27T12:49:03.730Z,11.20
2019-02-27T12:51:30.723Z,11.15
2019-02-27T12:53:57.689Z,10.08
2019-02-27T12:56:24.711Z,11.00
2019-02-27T12:58:51.615Z,10.63
2019-02-27T13:01:18.602Z,10.23
2019-02-27T13:03:45.482Z,8.88
2019-02-27T13:06:12.318Z,9.80
2019-02-27T13:08:39.084Z,9.93
2019-02-27T13:11:07.920Z,10.45
2019-02-27T13:13:34.767Z,23.67
2019-02-27T13:16:01.627Z,12.88
2019-02-27T13:18:31.537Z,11.18
2019-02-27T13:20:57.499Z,8.58
2019-02-27T13:23:24.415Z,9.88
2019-02-27T13:25:51.283Z,13.35
2019-02-27T13:28:18.297Z,10.93
2019-02-27T13:30:45.131Z,11.97
2019-02-27T13:33:12.078Z,13.98
2019-02-27T13:35:39.043Z,10.88
2019-02-27T13:38:05.914Z,13.53
2019-02-27T13:40:35.660Z,10.55
2019-02-27T13:43:01.579Z,11.90
2019-02-27T13:45:28.686Z,11.08
2019-02-27T13:47:55.551Z,11.15
2019-02-27T13:50:26.508Z,12.88
2019-02-27T13:52:51.648Z,11.18
2019-02-27T13:55:18.855Z,10.78
2019-02-27T13:57:45.783Z,9.95
2019-02-27T14:00:21.697Z,10.78
2019-02-27T14:02:48.757Z,10.30
2019-02-27T14:05:15.742Z,10.48
2019-02-27T14:07:42.732Z,9.48
2019-02-27T14:10:10.791Z,10.60
2019-02-27T14:12:37.787Z,9.08
2019-02-27T14:15:06.263Z,8.95
2019-02-27T14:17:33.079Z,9.00
2019-02-27T14:20:00.111Z,9.78
2019-02-27T14:22:27.039Z,10.50
2019-02-27T14:24:54.823Z,8.73
2019-02-27T14:27:22.429Z,9.13
2019-02-27T14:29:49.299Z,8.17
2019-02-27T14:32:16.091Z,8.70
2019-02-27T14:34:42.816Z,8.67
2019-02-27T14:37:09.779Z,8.53
2019-02-27T14:39:36.663Z,8.67
2019-02-27T14:42:03.795Z,8.20
2019-02-27T14:44:31.512Z,8.43
2019-02-27T14:46:59.147Z,8.60
2019-02-27T14:49:27.255Z,9.53
2019-02-27T14:51:54.669Z,9.50
2019-02-27T14:54:21.543Z,9.23
2019-02-27T14:56:49.528Z,9.37
2019-02-27T14:59:16.539Z,10.03
2019-02-27T15:01:43.388Z,9.73
2019-02-27T15:04:10.122Z,10.13
2019-02-27T15:06:37.031Z,10.90
2019-02-27T15:09:06.366Z,9.53
2019-02-27T15:11:33.454Z,9.33
2019-02-27T15:14:00.789Z,9.97
2019-02-27T15:16:27.875Z,10.17
2019-02-27T15:18:55.866Z,8.37
2019-02-27T15:21:22.933Z,8.73
2019-02-27T15:23:49.662Z,8.17
2019-02-27T15:26:17.118Z,8.10
2019-02-27T15:28:44.233Z,8.33
2019-02-27T15:31:11.038Z,9.00
2019-02-27T15:33:39.046Z,9.60
2019-02-27T15:36:06.248Z,9.40
2019-02-27T15:38:33.199Z,8.30
2019-02-27T15:41:02.177Z,8.47
2019-02-27T15:43:28.803Z,9.07
2019-02-27T15:45:55.787Z,8.57
2019-02-27T15:48:22.567Z,8.60
2019-02-27T15:50:49.519Z,8.33
2019-02-27T15:53:16.399Z,9.37
2019-02-27T15:55:43.377Z,9.27
2019-02-27T15:58:10.233Z,9.43
2019-02-27T16:00:36.996Z,9.93
2019-02-27T16:03:03.986Z,9.50
2019-02-27T16:05:31.721Z,9.13
2019-02-27T16:07:58.808Z,9.07
2019-02-27T16:10:25.790Z,8.17
2019-02-27T16:12:52.667Z,8.50
2019-02-27T16:15:20.435Z,8.43
2019-02-27T16:17:47.399Z,9.67
2019-02-27T16:20:16.178Z,9.63
2019-02-27T16:22:43.785Z,7.73
2019-02-27T16:25:13.950Z,8.63
2019-02-27T16:27:41.710Z,8.90
2019-02-27T16:30:14.509Z,8.73
2019-02-27T16:32:47.902Z,8.40
2019-02-27T16:35:10.599Z,8.60
2019-02-27T16:37:37.587Z,9.17
2019-02-27T16:40:05.550Z,8.53
2019-02-27T16:42:32.491Z,8.50
2019-02-27T16:44:59.335Z,10.10
2019-02-27T16:47:26.209Z,9.83
2019-02-27T16:49:54.263Z,9.90
2019-02-27T16:52:21.222Z,9.00
2019-02-27T16:54:48.315Z,10.27
2019-02-27T16:57:15.142Z,10.30
2019-02-27T16:59:44.942Z,10.63
2019-02-27T17:02:10.911Z,10.40
2019-02-27T17:04:37.663Z,10.30
2019-02-27T17:07:04.648Z,11.20
2019-02-27T17:09:31.630Z,11.53
2019-02-27T17:11:58.395Z,11.97
2019-02-27T17:14:25.167Z,10.80
2019-02-27T17:16:51.947Z,9.60
2019-02-27T17:19:19.943Z,9.63
2019-02-27T17:21:46.820Z,8.77
2019-02-27T17:24:13.572Z,8.77
2019-02-27T17:26:40.407Z,8.37
2019-02-27T17:29:07.129Z,8.33
2019-02-27T17:31:35.467Z,8.03
2019-02-27T17:34:02.714Z,7.63
2019-02-27T17:36:31.920Z,7.60
2019-02-27T17:38:58.140Z,7.37
2019-02-27T17:41:26.157Z,8.07
2019-02-27T17:43:53.255Z,7.43
2019-02-27T17:46:20.778Z,8.03
2019-02-27T17:48:48.663Z,6.43
2019-02-27T17:51:15.619Z,6.43
2019-02-27T17:53:42.518Z,7.33
2019-02-27T17:56:09.376Z,8.03
2019-02-27T17:58:36.083Z,8.87
2019-02-27T18:01:04.783Z,9.77
2019-02-27T18:03:31.659Z,8.20
2019-02-27T18:05:59.437Z,7.60
2019-02-27T18:08:27.095Z,6.97
2019-02-27T18:10:53.941Z,6.67
2019-02-27T18:13:20.775Z,6.90
2019-02-27T18:15:47.743Z,7.50
2019-02-27T18:18:14.895Z,11.23
2019-02-27T18:20:41.633Z,10.37
2019-02-27T18:23:08.618Z,9.37
2019-02-27T18:25:35.452Z,8.83
2019-02-27T18:28:02.427Z,9.07
2019-02-27T18:30:29.434Z,10.07
2019-02-27T18:32:56.232Z,11.83
2019-02-27T18:35:28.803Z,11.23
2019-02-27T18:37:54.579Z,13.57
2019-02-27T18:40:21.574Z,11.90
2019-02-27T18:42:48.431Z,11.40
2019-02-27T18:45:16.193Z,11.13
2019-02-27T18:47:43.398Z,9.70
2019-02-27T18:50:10.627Z,9.57
2019-02-27T18:52:38.226Z,9.63
2019-02-27T18:55:06.492Z,8.33
2019-02-27T18:57:33.444Z,8.70
2019-02-27T19:00:01.473Z,8.40
2019-02-27T19:02:29.183Z,8.20
2019-02-27T19:04:56.027Z,7.20
2019-02-27T19:07:22.944Z,7.70
2019-02-27T19:09:49.883Z,7.63
2019-02-27T19:12:16.894Z,7.97
2019-02-27T19:14:43.855Z,7.00
2019-02-27T19:17:10.769Z,6.83
2019-02-27T19:19:37.763Z,7.33
2019-02-27T19:22:08.052Z,7.00
2019-02-27T19:24:33.683Z,6.60
2019-02-27T19:27:00.677Z,8.40
2019-02-27T19:29:27.635Z,8.27
2019-02-27T19:31:54.703Z,7.77
2019-02-27T19:34:21.504Z,8.07
2019-02-27T19:36:48.400Z,7.77
2019-02-27T19:39:15.371Z,6.77
2019-02-27T19:41:42.385Z,6.60
2019-02-27T19:44:09.404Z,6.70
2019-02-27T19:46:36.387Z,7.77
2019-02-27T19:49:03.612Z,7.50
2019-02-27T19:51:31.112Z,7.57
2019-02-27T19:53:58.077Z,6.37
2019-02-27T19:56:24.843Z,8.37
2019-02-27T19:58:52.200Z,7.63
2019-02-27T20:01:19.309Z,7.67
2019-02-27T20:03:46.214Z,8.13
2019-02-27T20:06:13.203Z,8.33
2019-02-27T20:08:44.365Z,7.53
2019-02-27T20:11:09.170Z,7.33
2019-02-27T20:13:36.171Z,7.10
2019-02-27T20:16:03.154Z,7.13
2019-02-27T20:18:30.379Z,6.50
2019-02-27T20:20:57.706Z,6.70
2019-02-27T20:23:25.758Z,6.40
2019-02-27T20:25:53.570Z,6.50
2019-02-27T20:28:20.479Z,6.53
2019-02-27T20:30:47.417Z,6.67
2019-02-27T20:33:14.727Z,5.77
2019-02-27T20:35:41.744Z,6.77
2019-02-27T20:38:08.526Z,7.30
2019-02-27T20:40:35.512Z,6.83
2019-02-27T20:43:02.722Z,6.57
2019-02-27T20:45:30.668Z,6.30
2019-02-27T20:48:01.577Z,6.47
2019-02-27T20:50:35.050Z,5.20
2019-02-27T20:52:58.791Z,6.17
2019-02-27T20:55:25.861Z,5.77
2019-02-27T20:57:52.971Z,7.17
2019-02-27T21:00:20.568Z,6.23
2019-02-27T21:02:47.294Z,6.67
2019-02-27T21:05:14.214Z,7.17
2019-02-27T21:07:41.215Z,6.30
2019-02-27T21:10:11.142Z,6.97
2019-02-27T21:12:40.652Z,6.53
2019-02-27T21:15:07.383Z,6.53
2019-02-27T21:17:34.204Z,6.90
2019-02-27T21:20:01.151Z,6.90
2019-02-27T21:22:28.401Z,6.73
2019-02-27T21:24:55.719Z,6.93
2019-02-27T21:27:22.531Z,7.13
2019-02-27T21:29:49.471Z,6.70
2019-02-27T21:32:16.323Z,6.13
2019-02-27T21:34:43.357Z,6.13
2019-02-27T21:37:10.706Z,6.60
2019-02-27T21:39:37.607Z,5.93
2019-02-27T21:42:04.479Z,6.90
2019-02-27T21:44:31.310Z,6.50
2019-02-27T21:46:58.175Z,6.57
2019-02-27T21:49:25.136Z,6.47
2019-02-27T21:51:51.870Z,6.03
2019-02-27T21:54:18.731Z,6.23
2019-02-27T21:56:45.620Z,6.93
2019-02-27T21:59:12.532Z,6.30
2019-02-27T22:01:39.533Z,6.90
2019-02-27T22:04:09.749Z,8.07
2019-02-27T22:06:35.635Z,7.07
2019-02-27T22:09:03.901Z,7.10
2019-02-27T22:11:31.653Z,7.10
2019-02-27T22:13:58.654Z,6.63
2019-02-27T22:16:29.529Z,6.73
2019-02-27T22:18:54.298Z,7.13
2019-02-27T22:21:21.134Z,6.57
2019-02-27T22:23:47.988Z,6.40
2019-02-27T22:26:14.993Z,6.07
2019-02-27T22:28:41.883Z,6.17
2019-02-27T22:31:08.751Z,6.37
2019-02-27T22:33:35.631Z,6.70
2019-02-27T22:36:02.531Z,6.80
2019-02-27T22:38:29.267Z,6.23
2019-02-27T22:40:56.142Z,7.83
2019-02-27T22:43:23.011Z,8.90
2019-02-27T22:45:49.979Z,8.77
2019-02-27T22:48:16.851Z,7.93
2019-02-27T22:50:43.690Z,8.53
2019-02-27T22:53:10.595Z,7.63
2019-02-27T22:55:37.555Z,7.83
2019-02-27T22:58:04.315Z,7.83
2019-02-27T23:01:00.870Z,7.07
2019-02-27T23:03:29.552Z,7.03
2019-02-27T23:05:57.025Z,7.17
2019-02-27T23:08:24.125Z,6.80
2019-02-27T23:10:51.362Z,7.03
2019-02-27T23:13:18.431Z,6.20
2019-02-27T23:15:45.408Z,7.20
2019-02-27T23:18:12.343Z,7.07
2019-02-27T23:20:39.568Z,6.17
2019-02-27T23:23:06.548Z,6.63
2019-02-27T23:25:33.499Z,7.57
2019-02-27T23:28:01.034Z,6.47
2019-02-27T23:30:28.902Z,6.67
2019-02-27T23:32:55.869Z,6.53
2019-02-27T23:35:22.644Z,6.97
2019-02-27T23:37:49.647Z,6.53
2019-02-27T23:40:17.553Z,6.17
2019-02-27T23:42:45.247Z,7.37
2019-02-27T23:45:12.620Z,6.47
2019-02-27T23:47:39.733Z,7.90
2019-02-27T23:50:06.812Z,6.20
2019-02-27T23:52:33.777Z,6.60
2019-02-27T23:55:00.647Z,6.27
2019-02-27T23:57:27.698Z,7.07
2019-02-27T23:59:54.776Z,8.77
